createdAt,value
2022-09-03T00:00:07.312Z,15.65
2022-09-03T00:02:39.290Z,15.52
2022-09-03T00:05:10.044Z,15.52
2022-09-03T00:07:43.557Z,15.71
2022-09-03T00:10:14.653Z,15.51
2022-09-03T00:12:45.536Z,15.70
2022-09-03T00:15:15.066Z,15.84
2022-09-03T00:17:45.605Z,15.65
2022-09-03T00:20:16.338Z,15.56
2022-09-03T00:22:47.989Z,15.65
2022-09-03T00:25:18.622Z,15.87
2022-09-03T00:27:50.420Z,15.68
2022-09-03T00:30:19.045Z,15.56
2022-09-03T00:32:48.223Z,15.43
2022-09-03T00:35:17.956Z,15.60
2022-09-03T00:37:47.006Z,15.58
2022-09-03T00:40:18.846Z,15.84
2022-09-03T00:42:53.471Z,15.38
2022-09-03T00:45:28.196Z,15.30
2022-09-03T00:48:04.970Z,15.45
2022-09-03T00:50:42.338Z,14.84
2022-09-03T00:53:14.833Z,15.02
2022-09-03T00:55:47.579Z,15.09
2022-09-03T00:58:23.968Z,15.34
2022-09-03T01:00:52.885Z,15.38
2022-09-03T01:03:26.740Z,15.28
2022-09-03T01:06:03.453Z,15.32
2022-09-03T01:08:39.220Z,15.31
2022-09-03T01:11:15.642Z,15.44
2022-09-03T01:13:46.752Z,15.08
2022-09-03T01:16:20.344Z,14.81
2022-09-03T01:18:53.651Z,15.05
2022-09-03T01:21:40.247Z,14.63
2022-09-03T01:24:21.936Z,15.04
2022-09-03T01:27:03.511Z,15.06
2022-09-03T01:29:35.637Z,14.70
2022-09-03T01:32:13.906Z,14.50
2022-09-03T01:34:46.407Z,14.34
2022-09-03T01:37:16.986Z,14.33
2022-09-03T01:39:51.397Z,14.57
2022-09-03T01:42:24.470Z,14.43
2022-09-03T01:45:12.148Z,14.36
2022-09-03T01:47:51.282Z,14.29
2022-09-03T01:50:27.093Z,14.30
2022-09-03T01:52:57.367Z,14.66
2022-09-03T01:55:29.917Z,14.48
2022-09-03T01:57:59.856Z,14.28
2022-09-03T02:00:28.899Z,14.59
2022-09-03T02:03:04.119Z,14.12
2022-09-03T02:05:31.826Z,14.23
2022-09-03T02:08:01.467Z,14.10
2022-09-03T02:10:32.304Z,14.20
2022-09-03T02:13:03.153Z,14.09
2022-09-03T02:15:34.612Z,13.92
2022-09-03T02:18:07.094Z,13.92
2022-09-03T02:20:34.818Z,14.10
2022-09-03T02:23:03.552Z,13.98
2022-09-03T02:25:34.408Z,13.85
2022-09-03T02:28:02.844Z,13.70
2022-09-03T02:30:30.490Z,13.72
2022-09-03T02:32:58.298Z,13.99
2022-09-03T02:35:27.530Z,13.87
2022-09-03T02:37:55.160Z,13.80
2022-09-03T02:40:22.860Z,13.81
2022-09-03T02:42:51.319Z,13.75
2022-09-03T02:45:23.493Z,13.63
2022-09-03T02:47:53.414Z,13.82
2022-09-03T02:50:21.034Z,13.89
2022-09-03T02:52:50.063Z,13.61
2022-09-03T02:55:19.127Z,13.73
2022-09-03T02:57:47.173Z,13.71
2022-09-03T03:00:15.874Z,13.74
2022-09-03T03:02:43.689Z,13.69
2022-09-03T03:05:17.666Z,13.87
2022-09-03T03:07:45.313Z,13.61
2022-09-03T03:10:14.935Z,13.62
2022-09-03T03:12:42.555Z,13.83
2022-09-03T03:15:10.811Z,13.74
2022-09-03T03:17:38.448Z,13.80
2022-09-03T03:20:06.523Z,13.76
2022-09-03T03:22:34.250Z,13.73
2022-09-03T03:25:02.078Z,13.62
2022-09-03T03:27:31.042Z,13.69
2022-09-03T03:29:58.702Z,13.69
2022-09-03T03:32:26.369Z,13.72
2022-09-03T03:34:54.019Z,13.68
2022-09-03T03:37:21.707Z,13.74
2022-09-03T03:39:49.371Z,13.62
2022-09-03T03:42:17.053Z,13.62
2022-09-03T03:44:46.092Z,13.59
2022-09-03T03:47:13.805Z,13.71
2022-09-03T03:49:41.874Z,13.74
2022-09-03T03:52:09.761Z,13.80
2022-09-03T03:54:37.362Z,13.63
2022-09-03T03:57:05.155Z,13.66
2022-09-03T03:59:32.814Z,13.88
2022-09-03T04:02:01.842Z,13.78
2022-09-03T04:04:29.590Z,13.87
2022-09-03T04:06:57.230Z,13.88
2022-09-03T04:09:25.837Z,13.74
2022-09-03T04:11:53.496Z,13.68
2022-09-03T04:14:22.187Z,13.73
2022-09-03T04:16:51.071Z,13.65
2022-09-03T04:19:20.072Z,13.71
2022-09-03T04:21:47.712Z,13.64
2022-09-03T04:24:15.349Z,13.72
2022-09-03T04:26:43.013Z,13.88
2022-09-03T04:29:11.349Z,13.73
2022-09-03T04:31:40.104Z,13.92
2022-09-03T04:34:07.844Z,13.90
2022-09-03T04:36:37.783Z,14.11
2022-09-03T04:39:05.445Z,13.87
2022-09-03T04:41:33.207Z,14.09
2022-09-03T04:44:00.867Z,14.08
2022-09-03T04:46:33.652Z,14.04
2022-09-03T04:49:01.942Z,14.35
2022-09-03T04:51:31.463Z,14.28
2022-09-03T04:54:01.609Z,14.38
2022-09-03T04:56:30.361Z,14.44
2022-09-03T04:58:58.615Z,14.33
2022-09-03T05:01:27.274Z,14.28
2022-09-03T05:03:56.310Z,14.65
2022-09-03T05:06:24.703Z,14.46
2022-09-03T05:08:52.884Z,14.72
2022-09-03T05:11:23.709Z,14.33
2022-09-03T05:13:51.944Z,14.72
2022-09-03T05:16:19.846Z,14.69
2022-09-03T05:18:48.151Z,14.75
2022-09-03T05:21:17.012Z,14.84
2022-09-03T05:23:45.440Z,14.84
2022-09-03T05:26:14.790Z,14.98
2022-09-03T05:28:44.521Z,14.91
2022-09-03T05:31:13.218Z,15.27
2022-09-03T05:33:42.165Z,15.24
2022-09-03T05:36:10.569Z,15.08
2022-09-03T05:38:38.623Z,14.97
2022-09-03T05:41:06.965Z,15.12
2022-09-03T05:43:35.461Z,15.12
2022-09-03T05:46:05.529Z,15.32
2022-09-03T05:48:34.318Z,14.99
2022-09-03T05:51:02.188Z,15.04
2022-09-03T05:53:30.294Z,15.43
2022-09-03T05:55:58.357Z,15.53
2022-09-03T05:58:26.929Z,15.48
2022-09-03T06:00:54.678Z,15.28
2022-09-03T06:03:23.926Z,15.64
2022-09-03T06:05:52.693Z,15.63
2022-09-03T06:08:20.293Z,15.84
2022-09-03T06:10:47.947Z,16.04
2022-09-03T06:13:15.736Z,15.81
2022-09-03T06:15:43.385Z,15.82
2022-09-03T06:18:11.001Z,15.87
2022-09-03T06:20:39.988Z,15.76
2022-09-03T06:23:07.669Z,16.37
2022-09-03T06:25:35.415Z,16.27
2022-09-03T06:28:04.160Z,15.95
2022-09-03T06:30:31.926Z,16.32
2022-09-03T06:32:59.567Z,15.92
2022-09-03T06:35:27.224Z,16.21
2022-09-03T06:37:59.896Z,16.34
2022-09-03T06:40:27.559Z,16.42
2022-09-03T06:43:00.895Z,16.54
2022-09-03T06:45:29.370Z,16.49
2022-09-03T06:47:57.089Z,16.51
2022-09-03T06:50:24.950Z,16.50
2022-09-03T06:52:55.106Z,16.87
2022-09-03T06:55:24.171Z,16.73
2022-09-03T06:57:57.039Z,16.71
2022-09-03T07:00:24.965Z,16.54
2022-09-03T07:02:59.067Z,16.51
2022-09-03T07:05:28.669Z,16.73
2022-09-03T07:07:56.317Z,17.19
2022-09-03T07:10:26.127Z,17.36
2022-09-03T07:12:55.928Z,17.39
2022-09-03T07:15:23.578Z,17.09
2022-09-03T07:17:51.345Z,17.03
2022-09-03T07:20:19.081Z,17.55
2022-09-03T07:22:46.802Z,17.89
2022-09-03T07:25:14.602Z,17.78
2022-09-03T07:27:43.619Z,17.95
2022-09-03T07:30:12.146Z,18.16
2022-09-03T07:32:40.963Z,18.13
2022-09-03T07:35:08.999Z,18.26
2022-09-03T07:37:37.334Z,18.44
2022-09-03T07:40:05.240Z,18.32
2022-09-03T07:42:33.094Z,18.75
2022-09-03T07:45:04.611Z,18.81
2022-09-03T07:47:34.529Z,19.43
2022-09-03T07:50:02.205Z,19.71
2022-09-03T07:52:29.827Z,19.84
2022-09-03T07:54:57.518Z,20.13
2022-09-03T07:57:25.349Z,19.96
2022-09-03T07:59:53.024Z,20.42
2022-09-03T08:02:22.061Z,20.76
2022-09-03T08:04:49.707Z,20.65
2022-09-03T08:07:17.351Z,20.46
2022-09-03T08:09:45.040Z,21.22
2022-09-03T08:12:12.693Z,21.03
2022-09-03T08:14:40.401Z,20.96
2022-09-03T08:17:08.029Z,21.10
2022-09-03T08:19:37.056Z,20.93
2022-09-03T08:22:04.749Z,20.79
2022-09-03T08:24:34.276Z,20.75
2022-09-03T08:27:01.964Z,20.46
2022-09-03T08:29:29.605Z,20.37
2022-09-03T08:31:59.534Z,21.21
2022-09-03T08:34:27.469Z,20.93
2022-09-03T08:36:56.507Z,21.01
2022-09-03T08:39:24.369Z,20.96
2022-09-03T08:42:03.700Z,21.29
2022-09-03T08:44:32.361Z,21.67
2022-09-03T08:47:01.803Z,22.17
2022-09-03T08:49:33.242Z,22.20
2022-09-03T08:52:04.737Z,22.91
2022-09-03T08:54:33.439Z,22.90
2022-09-03T08:57:02.190Z,22.78
2022-09-03T08:59:33.026Z,22.86
2022-09-03T09:02:07.117Z,22.98
2022-09-03T09:04:40.488Z,22.61
2022-09-03T09:07:12.263Z,23.45
2022-09-03T09:09:48.859Z,23.21
2022-09-03T09:12:37.590Z,23.16
2022-09-03T09:15:13.993Z,23.89
2022-09-03T09:17:57.542Z,23.85
2022-09-03T09:20:30.183Z,24.05
2022-09-03T09:23:02.781Z,23.86
2022-09-03T09:25:32.486Z,23.61
2022-09-03T09:28:01.558Z,23.41
2022-09-03T09:30:30.002Z,23.91
2022-09-03T09:32:57.698Z,23.41
2022-09-03T09:35:25.329Z,23.79
2022-09-03T09:37:53.697Z,23.08
2022-09-03T09:40:27.646Z,24.14
2022-09-03T09:43:04.272Z,24.57
2022-09-03T09:45:34.150Z,24.46
2022-09-03T09:48:02.671Z,24.76
2022-09-03T09:50:30.467Z,24.13
2022-09-03T09:53:04.271Z,24.26
2022-09-03T09:55:33.359Z,24.88
2022-09-03T09:58:13.947Z,25.05
2022-09-03T10:00:42.861Z,24.62
2022-09-03T10:03:13.696Z,24.65
2022-09-03T10:05:41.781Z,25.39
2022-09-03T10:08:21.012Z,25.45
2022-09-03T10:10:50.914Z,25.21
2022-09-03T10:13:21.402Z,26.14
2022-09-03T10:15:51.619Z,24.91
2022-09-03T10:18:28.490Z,25.50
2022-09-03T10:20:59.534Z,25.49
2022-09-03T10:23:28.314Z,26.62
2022-09-03T10:26:04.537Z,26.63
2022-09-03T10:28:33.286Z,26.79
2022-09-03T10:31:08.899Z,27.04
2022-09-03T10:33:40.089Z,26.81
2022-09-03T10:36:13.410Z,25.32
2022-09-03T10:38:43.840Z,26.16
2022-09-03T10:41:24.196Z,26.96
2022-09-03T10:44:03.957Z,26.47
2022-09-03T10:46:37.225Z,26.24
2022-09-03T10:49:19.814Z,24.80
2022-09-03T10:51:51.339Z,25.72
2022-09-03T10:54:26.596Z,25.31
2022-09-03T10:57:03.446Z,26.12
2022-09-03T10:59:35.506Z,25.60
2022-09-03T11:02:11.822Z,25.70
2022-09-03T11:04:44.812Z,25.45
2022-09-03T11:07:13.966Z,25.89
2022-09-03T11:09:43.570Z,26.45
2022-09-03T11:12:14.006Z,26.50
2022-09-03T11:14:43.763Z,26.33
2022-09-03T11:17:14.079Z,27.56
2022-09-03T11:19:48.229Z,27.89
2022-09-03T11:22:20.694Z,27.19
2022-09-03T11:24:52.717Z,27.35
2022-09-03T11:27:27.866Z,27.06
2022-09-03T11:30:00.359Z,27.68
2022-09-03T11:32:34.949Z,27.62
2022-09-03T11:35:02.635Z,27.29
2022-09-03T11:37:31.200Z,28.02
2022-09-03T11:40:01.014Z,27.06
2022-09-03T11:42:31.984Z,28.00
2022-09-03T11:45:19.083Z,28.68
2022-09-03T11:47:47.351Z,28.20
2022-09-03T11:50:21.137Z,28.39
2022-09-03T11:52:49.399Z,27.66
2022-09-03T11:55:26.963Z,28.23
2022-09-03T11:57:55.991Z,27.72
2022-09-03T12:00:25.126Z,27.57
2022-09-03T12:02:58.916Z,27.79
2022-09-03T12:05:32.820Z,27.47
2022-09-03T12:08:09.236Z,27.56
2022-09-03T12:10:42.462Z,27.84
2022-09-03T12:13:29.244Z,28.42
2022-09-03T12:16:08.462Z,29.41
2022-09-03T12:18:37.099Z,29.06
2022-09-03T12:21:05.937Z,29.47
2022-09-03T12:23:35.401Z,28.60
2022-09-03T12:26:05.176Z,28.30
2022-09-03T12:28:36.243Z,28.61
2022-09-03T12:31:08.333Z,29.26
2022-09-03T12:33:41.897Z,28.18
2022-09-03T12:36:10.524Z,27.73
2022-09-03T12:39:07.708Z,27.25
2022-09-03T12:41:28.243Z,27.72
2022-09-03T12:43:58.268Z,27.57
2022-09-03T12:46:33.589Z,27.19
2022-09-03T12:51:56.899Z,28.10
2022-09-03T12:54:27.010Z,28.30
2022-09-03T12:56:57.277Z,27.85
2022-09-03T12:59:28.386Z,28.11
2022-09-03T13:01:57.418Z,28.27
2022-09-03T13:04:26.903Z,28.17
2022-09-03T13:06:58.052Z,28.00
2022-09-03T13:09:29.919Z,27.23
2022-09-03T13:11:59.164Z,28.00
2022-09-03T13:14:28.400Z,28.10
2022-09-03T13:17:10.850Z,27.49
2022-09-03T13:19:44.938Z,27.87
2022-09-03T13:22:17.205Z,27.39
2022-09-03T13:24:54.937Z,26.94
2022-09-03T13:27:26.439Z,26.80
2022-09-03T13:30:03.251Z,27.26
2022-09-03T13:32:37.083Z,26.71
2022-09-03T13:35:08.266Z,26.81
2022-09-03T13:37:39.791Z,26.69
2022-09-03T13:40:16.169Z,26.92
2022-09-03T13:42:46.714Z,26.84
2022-09-03T13:45:24.838Z,27.46
2022-09-03T13:48:14.809Z,26.76
2022-09-03T13:50:45.019Z,26.67
2022-09-03T13:53:17.285Z,27.00
2022-09-03T13:55:47.446Z,27.11
2022-09-03T13:58:20.983Z,27.36
2022-09-03T14:00:54.979Z,27.28
2022-09-03T14:03:26.767Z,26.88
2022-09-03T14:06:03.500Z,27.24
2022-09-03T14:08:38.850Z,27.12
2022-09-03T14:11:14.394Z,27.28
2022-09-03T14:13:48.432Z,26.99
2022-09-03T14:16:21.551Z,27.27
2022-09-03T14:18:53.571Z,26.39
2022-09-03T14:21:23.770Z,27.44
2022-09-03T14:23:56.054Z,27.26
2022-09-03T14:26:38.539Z,27.62
2022-09-03T14:29:15.693Z,27.83
2022-09-03T14:31:57.546Z,28.01
2022-09-03T14:34:31.666Z,27.65
2022-09-03T14:37:04.685Z,26.48
2022-09-03T14:39:34.549Z,27.64
2022-09-03T14:42:20.173Z,27.78
2022-09-03T14:44:59.558Z,27.20
2022-09-03T14:47:36.082Z,26.54
2022-09-03T14:50:16.039Z,26.75
2022-09-03T14:53:03.858Z,27.18
2022-09-03T14:55:39.963Z,27.47
2022-09-03T14:58:19.918Z,26.47
2022-09-03T15:00:53.390Z,26.98
2022-09-03T15:03:41.671Z,26.76
2022-09-03T15:06:15.899Z,27.23
2022-09-03T15:08:51.250Z,27.14
2022-09-03T15:11:22.767Z,27.56
2022-09-03T15:13:53.592Z,28.01
2022-09-03T15:16:30.008Z,27.47
2022-09-03T15:19:06.945Z,27.67
2022-09-03T15:21:44.073Z,27.48
2022-09-03T15:24:18.286Z,26.75
2022-09-03T15:26:55.116Z,27.30
2022-09-03T15:29:30.910Z,27.57
2022-09-03T15:32:03.633Z,27.81
2022-09-03T15:34:46.235Z,27.96
2022-09-03T15:37:18.637Z,27.73
2022-09-03T15:39:47.532Z,27.64
2022-09-03T15:42:19.503Z,27.25
2022-09-03T15:44:49.652Z,27.11
2022-09-03T15:47:43.122Z,27.25
2022-09-03T15:50:27.463Z,26.62
2022-09-03T15:53:00.837Z,27.69
2022-09-03T15:55:33.100Z,27.34
2022-09-03T15:58:09.767Z,26.84
2022-09-03T16:00:50.145Z,27.82
2022-09-03T16:03:24.128Z,26.90
2022-09-03T16:05:55.352Z,27.20
2022-09-03T16:08:28.164Z,27.17
2022-09-03T16:11:01.749Z,27.33
2022-09-03T16:13:36.838Z,27.37
2022-09-03T16:16:06.552Z,26.88
2022-09-03T16:18:38.277Z,27.19
2022-09-03T16:21:09.593Z,26.65
2022-09-03T16:23:43.001Z,26.91
2022-09-03T16:26:14.374Z,26.79
2022-09-03T16:28:46.646Z,26.80
2022-09-03T16:31:19.220Z,25.25
2022-09-03T16:33:52.275Z,24.49
2022-09-03T16:36:26.855Z,24.38
2022-09-03T16:39:00.937Z,23.63
2022-09-03T16:41:30.554Z,23.50
2022-09-03T16:44:06.050Z,23.10
2022-09-03T16:46:37.273Z,22.67
2022-09-03T16:49:11.577Z,22.49
2022-09-03T16:51:44.368Z,22.74
2022-09-03T16:54:21.483Z,22.58
2022-09-03T16:56:59.979Z,22.62
2022-09-03T16:59:47.600Z,22.34
2022-09-03T17:02:40.478Z,22.42
2022-09-03T17:05:16.626Z,22.20
2022-09-03T17:07:54.371Z,21.92
2022-09-03T17:10:28.635Z,22.15
2022-09-03T17:13:05.293Z,22.13
2022-09-03T17:15:37.060Z,21.85
2022-09-03T17:18:11.019Z,21.79
2022-09-03T17:20:51.899Z,21.95
2022-09-03T17:23:33.150Z,22.05
2022-09-03T17:26:07.224Z,21.99
2022-09-03T17:28:44.698Z,22.00
2022-09-03T17:31:17.060Z,22.10
2022-09-03T17:33:56.478Z,22.18
2022-09-03T17:36:27.378Z,22.27
2022-09-03T17:39:16.319Z,22.14
2022-09-03T17:41:47.706Z,22.10
2022-09-03T17:44:20.882Z,21.98
2022-09-03T17:46:50.494Z,21.72
2022-09-03T17:49:22.691Z,21.88
2022-09-03T17:51:52.629Z,21.62
2022-09-03T17:54:25.871Z,21.54
2022-09-03T17:56:59.824Z,21.41
2022-09-03T17:59:34.305Z,21.24
2022-09-03T18:03:13.553Z,21.01
2022-09-03T18:05:46.902Z,21.19
2022-09-03T18:08:18.491Z,21.31
2022-09-03T18:10:50.433Z,21.12
2022-09-03T18:13:26.093Z,21.15
2022-09-03T18:15:57.162Z,21.12
2022-09-03T18:18:28.514Z,20.94
2022-09-03T18:21:24.472Z,21.26
2022-09-03T18:24:15.982Z,21.08
2022-09-03T18:34:03.839Z,20.57
2022-09-03T18:36:50.086Z,20.18
2022-09-03T18:39:47.224Z,20.06
2022-09-03T18:42:41.415Z,19.74
2022-09-03T18:46:05.519Z,19.80
2022-09-03T18:48:50.227Z,19.46
2022-09-03T18:51:45.476Z,19.33
2022-09-03T18:55:07.406Z,19.44
2022-09-03T18:58:06.008Z,19.54
2022-09-03T19:00:59.638Z,19.44
2022-09-03T19:03:58.150Z,19.47
2022-09-03T19:06:56.623Z,19.69
2022-09-03T19:10:02.319Z,19.52
2022-09-03T19:13:00.348Z,19.18
2022-09-03T19:15:51.102Z,18.99
2022-09-03T19:18:55.733Z,19.07
2022-09-03T19:21:50.707Z,19.23
2022-09-03T19:24:41.887Z,18.90
2022-09-03T19:27:55.300Z,18.73
2022-09-03T19:30:51.710Z,18.71
2022-09-03T19:33:45.249Z,18.76
2022-09-03T19:36:38.059Z,18.81
2022-09-03T19:39:50.175Z,18.84
2022-09-03T19:42:45.768Z,18.89
2022-09-03T19:45:39.798Z,18.87
2022-09-03T19:48:36.487Z,18.87
2022-09-03T19:51:29.066Z,18.74
2022-09-03T19:54:18.910Z,18.47
2022-09-03T19:57:07.091Z,18.58
2022-09-03T19:59:57.650Z,18.55
2022-09-03T20:02:43.054Z,18.53
2022-09-03T20:05:32.475Z,18.48
2022-09-03T20:08:18.476Z,18.40
2022-09-03T20:10:50.418Z,18.38
2022-09-03T20:13:21.000Z,18.40
2022-09-03T20:15:52.174Z,18.44
2022-09-03T20:18:30.452Z,18.18
2022-09-03T20:21:07.943Z,18.30
2022-09-03T20:23:46.030Z,18.06
2022-09-03T20:26:24.972Z,17.92
2022-09-03T20:29:11.672Z,18.20
2022-09-03T20:31:49.186Z,18.20
2022-09-03T20:34:28.955Z,17.72
2022-09-03T20:37:05.634Z,17.81
2022-09-03T20:39:43.229Z,17.95
2022-09-03T20:42:29.577Z,17.85
2022-09-03T20:45:09.032Z,17.67
2022-09-03T20:48:00.319Z,17.69
2022-09-03T20:50:49.455Z,17.50
2022-09-03T20:53:39.206Z,17.50
2022-09-03T20:56:15.039Z,17.48
2022-09-03T20:58:49.241Z,17.18
2022-09-03T21:01:24.204Z,17.36
2022-09-03T21:04:04.313Z,17.33
2022-09-03T21:06:42.577Z,17.58
2022-09-03T21:09:21.871Z,17.66
2022-09-03T21:11:59.122Z,17.41
2022-09-03T21:14:35.301Z,17.46
2022-09-03T21:17:25.146Z,17.56
2022-09-03T21:20:04.827Z,17.57
2022-09-03T21:22:42.619Z,17.36
2022-09-03T21:25:15.866Z,17.31
2022-09-03T21:27:48.279Z,17.29
2022-09-03T21:30:18.927Z,17.12
2022-09-03T21:32:53.428Z,17.16
2022-09-03T21:35:27.468Z,17.10
2022-09-03T21:38:00.484Z,16.92
2022-09-03T21:40:32.414Z,16.70
2022-09-03T21:43:10.675Z,16.68
2022-09-03T21:45:45.981Z,16.47
2022-09-03T21:48:21.202Z,16.89
2022-09-03T21:50:55.083Z,16.66
2022-09-03T21:53:29.814Z,16.72
2022-09-03T21:56:22.739Z,16.60
2022-09-03T21:59:08.278Z,16.43
2022-09-03T22:01:49.983Z,16.41
2022-09-03T22:04:21.716Z,16.60
2022-09-03T22:07:01.118Z,16.83
2022-09-03T22:09:35.484Z,16.82
2022-09-03T22:12:08.919Z,16.79
2022-09-03T22:14:44.575Z,16.88
2022-09-03T22:17:18.372Z,16.90
2022-09-03T22:19:47.597Z,17.11
2022-09-03T22:22:22.661Z,16.93
2022-09-03T22:25:02.043Z,16.89
2022-09-03T22:27:37.059Z,16.56
2022-09-03T22:30:11.293Z,16.73
2022-09-03T22:32:51.080Z,16.91
2022-09-03T22:35:56.363Z,16.76
2022-09-03T22:38:40.322Z,16.73
2022-09-03T22:41:21.083Z,16.38
2022-09-03T22:43:54.153Z,16.09
2022-09-03T22:46:24.456Z,16.16
2022-09-03T22:49:11.722Z,16.13
2022-09-03T22:51:53.859Z,16.04
2022-09-03T22:54:35.548Z,16.48
2022-09-03T22:57:05.573Z,16.41
2022-09-03T22:59:39.103Z,16.51
2022-09-03T23:02:13.464Z,16.46
2022-09-03T23:04:48.776Z,16.48
2022-09-03T23:07:25.568Z,16.32
2022-09-03T23:09:58.903Z,15.84
2022-09-03T23:12:35.838Z,15.98
2022-09-03T23:15:06.896Z,15.85
2022-09-03T23:17:40.948Z,15.58
2022-09-03T23:20:13.401Z,15.49
2022-09-03T23:22:54.451Z,15.49
2022-09-03T23:25:26.361Z,15.36
2022-09-03T23:27:58.554Z,15.72
2022-09-03T23:30:26.434Z,15.92
2022-09-03T23:32:57.050Z,15.65
2022-09-03T23:35:29.917Z,15.53
2022-09-03T23:38:13.968Z,15.76
2022-09-03T23:40:46.716Z,15.41
2022-09-03T23:43:59.272Z,15.67
2022-09-03T23:46:32.816Z,15.75
2022-09-03T23:49:28.934Z,15.49
2022-09-03T23:52:22.121Z,15.36
2022-09-03T23:54:59.923Z,15.28
2022-09-03T23:57:39.355Z,15.24
